createdAt,value
2018-08-03T00:01:54.964Z,16.90
2018-08-03T00:04:24.309Z,16.90
2018-08-03T00:06:53.305Z,16.90
2018-08-03T00:09:22.647Z,16.80
2018-08-03T00:11:51.616Z,16.80
2018-08-03T00:14:20.967Z,16.70
2018-08-03T00:16:50.295Z,16.70
2018-08-03T00:19:19.819Z,16.70
2018-08-03T00:21:49.212Z,16.70
2018-08-03T00:24:18.441Z,16.50
2018-08-03T00:26:48.072Z,16.50
2018-08-03T00:29:17.564Z,16.50
2018-08-03T00:31:46.904Z,16.60
2018-08-03T00:34:16.115Z,16.50
2018-08-03T00:36:45.161Z,16.50
2018-08-03T00:39:14.417Z,16.50
2018-08-03T00:41:43.456Z,16.60
2018-08-03T00:44:12.816Z,16.50
2018-08-03T00:46:42.088Z,16.50
2018-08-03T00:49:11.228Z,16.40
2018-08-03T00:51:40.815Z,16.40
2018-08-03T00:54:10.231Z,16.30
2018-08-03T00:56:39.440Z,16.30
2018-08-03T00:59:08.800Z,16.30
2018-08-03T01:01:38.099Z,16.30
2018-08-03T01:04:07.183Z,16.30
2018-08-03T01:06:36.597Z,16.30
2018-08-03T01:09:09.387Z,16.20
2018-08-03T01:11:38.525Z,16.10
2018-08-03T01:14:07.992Z,15.90
2018-08-03T01:16:40.229Z,15.80
2018-08-03T01:19:12.024Z,15.80
2018-08-03T01:21:41.644Z,15.90
2018-08-03T01:24:11.087Z,15.90
2018-08-03T01:26:40.128Z,15.90
2018-08-03T01:29:09.340Z,16.00
2018-08-03T01:31:38.707Z,16.10
2018-08-03T01:34:07.790Z,16.10
2018-08-03T01:36:37.083Z,16.10
2018-08-03T01:39:08.148Z,16.10
2018-08-03T01:41:37.479Z,16.10
2018-08-03T01:44:06.778Z,16.10
2018-08-03T01:46:36.085Z,16.00
2018-08-03T01:49:05.520Z,16.10
2018-08-03T01:51:34.944Z,15.90
2018-08-03T01:54:04.360Z,16.00
2018-08-03T01:56:33.788Z,15.90
2018-08-03T01:59:03.048Z,15.80
2018-08-03T02:01:32.151Z,15.90
2018-08-03T02:04:01.296Z,15.90
2018-08-03T02:06:30.591Z,15.90
2018-08-03T02:08:59.954Z,15.80
2018-08-03T02:11:29.186Z,15.90
2018-08-03T02:13:58.405Z,15.80
2018-08-03T02:16:28.344Z,15.80
2018-08-03T02:18:57.623Z,15.70
2018-08-03T02:21:26.900Z,15.70
2018-08-03T02:23:56.332Z,15.60
2018-08-03T02:26:25.846Z,15.50
2018-08-03T02:28:55.059Z,15.60
2018-08-03T02:31:24.803Z,15.50
2018-08-03T02:33:54.141Z,15.50
2018-08-03T02:36:23.156Z,15.50
2018-08-03T02:38:52.418Z,15.60
2018-08-03T02:43:50.172Z,15.60
2018-08-03T02:46:19.334Z,15.60
2018-08-03T02:48:48.141Z,15.40
2018-08-03T02:51:17.455Z,15.40
2018-08-03T02:53:46.603Z,15.40
2018-08-03T02:56:15.883Z,15.50
2018-08-03T02:58:44.975Z,15.50
2018-08-03T03:03:43.179Z,15.60
2018-08-03T03:06:12.296Z,15.60
2018-08-03T03:08:41.246Z,15.50
2018-08-03T03:11:11.176Z,15.30
2018-08-03T03:13:40.400Z,15.20
2018-08-03T03:16:09.479Z,15.30
2018-08-03T03:18:38.778Z,15.30
2018-08-03T03:21:08.040Z,15.40
2018-08-03T03:23:37.193Z,15.40
2018-08-03T03:26:06.451Z,15.40
2018-08-03T03:28:35.640Z,15.40
2018-08-03T03:31:05.284Z,15.40
2018-08-03T03:33:34.560Z,15.40
2018-08-03T03:36:03.685Z,15.40
2018-08-03T03:38:33.119Z,15.40
2018-08-03T03:41:02.651Z,15.30
2018-08-03T03:43:31.778Z,15.40
2018-08-03T03:46:01.028Z,15.50
2018-08-03T03:48:30.419Z,15.40
2018-08-03T03:50:59.546Z,15.50
2018-08-03T03:53:28.826Z,15.60
2018-08-03T03:55:57.908Z,15.50
2018-08-03T03:58:27.173Z,15.60
2018-08-03T04:00:56.420Z,15.70
2018-08-03T04:03:25.594Z,15.70
2018-08-03T04:05:54.873Z,15.70
2018-08-03T04:08:23.973Z,15.70
2018-08-03T04:10:53.427Z,15.80
2018-08-03T04:13:23.362Z,15.90
2018-08-03T04:15:52.611Z,15.90
2018-08-03T04:18:22.673Z,16.00
2018-08-03T04:20:52.680Z,16.10
2018-08-03T04:23:22.155Z,16.10
2018-08-03T04:25:51.216Z,16.10
2018-08-03T04:28:20.563Z,16.10
2018-08-03T04:30:49.711Z,16.20
2018-08-03T04:33:18.990Z,15.90
2018-08-03T04:35:49.134Z,16.00
2018-08-03T04:38:18.417Z,16.10
2018-08-03T04:40:47.570Z,16.00
2018-08-03T04:43:16.760Z,15.90
2018-08-03T04:45:45.924Z,15.90
2018-08-03T04:48:15.241Z,15.90
2018-08-03T04:50:44.304Z,16.00
2018-08-03T04:53:13.406Z,16.00
2018-08-03T04:55:42.543Z,16.00
2018-08-03T04:58:11.734Z,16.10
2018-08-03T05:00:40.919Z,16.20
2018-08-03T05:03:10.614Z,16.20
2018-08-03T05:05:39.900Z,16.30
2018-08-03T05:08:08.832Z,16.40
2018-08-03T05:10:38.068Z,16.50
2018-08-03T05:13:07.334Z,16.60
2018-08-03T05:15:36.565Z,16.40
2018-08-03T05:18:05.764Z,16.50
2018-08-03T05:20:35.061Z,16.50
2018-08-03T05:23:04.329Z,16.40
2018-08-03T05:28:02.145Z,16.40
2018-08-03T05:30:31.299Z,16.40
2018-08-03T05:33:00.632Z,16.60
2018-08-03T05:35:29.868Z,16.70
2018-08-03T05:37:58.994Z,16.70
2018-08-03T05:40:28.052Z,17.00
2018-08-03T05:42:57.481Z,17.20
2018-08-03T05:45:26.654Z,17.40
2018-08-03T05:47:55.921Z,17.50
2018-08-03T05:50:25.071Z,17.70
2018-08-03T05:52:54.507Z,17.90
2018-08-03T05:55:23.652Z,18.00
2018-08-03T05:57:53.290Z,17.70
2018-08-03T06:00:22.637Z,17.80
2018-08-03T06:02:51.788Z,17.90
2018-08-03T06:05:21.340Z,18.00
2018-08-03T06:07:50.639Z,18.00
2018-08-03T06:10:20.032Z,18.20
2018-08-03T06:12:49.259Z,18.30
2018-08-03T06:15:18.731Z,18.30
2018-08-03T06:17:47.958Z,18.30
2018-08-03T06:20:17.736Z,18.40
2018-08-03T06:22:47.242Z,18.50
2018-08-03T06:25:16.718Z,18.80
2018-08-03T06:27:46.152Z,19.00
2018-08-03T06:30:15.278Z,19.20
2018-08-03T06:32:44.755Z,19.40
2018-08-03T06:35:14.089Z,19.60
2018-08-03T06:37:43.193Z,20.00
2018-08-03T06:40:12.352Z,20.20
2018-08-03T06:42:41.764Z,20.50
2018-08-03T06:45:11.288Z,20.70
2018-08-03T06:47:40.577Z,21.10
2018-08-03T06:50:09.531Z,21.20
2018-08-03T06:52:38.917Z,21.40
2018-08-03T06:55:08.166Z,21.70
2018-08-03T06:57:37.658Z,22.00
2018-08-03T07:00:07.425Z,22.50
2018-08-03T07:02:36.716Z,22.70
2018-08-03T07:07:35.093Z,23.10
2018-08-03T07:10:04.419Z,23.20
2018-08-03T07:15:02.688Z,23.50
2018-08-03T07:17:31.999Z,23.70
2018-08-03T07:20:01.130Z,23.80
2018-08-03T07:22:30.319Z,23.90
2018-08-03T07:24:59.899Z,24.10
2018-08-03T07:27:28.931Z,24.30
2018-08-03T07:29:58.433Z,24.40
2018-08-03T07:32:27.928Z,24.50
2018-08-03T07:34:57.460Z,24.70
2018-08-03T07:37:27.172Z,24.80
2018-08-03T07:39:56.841Z,24.90
2018-08-03T07:42:26.802Z,24.90
2018-08-03T07:44:55.925Z,24.80
2018-08-03T07:47:25.164Z,25.00
2018-08-03T07:49:54.304Z,24.90
2018-08-03T07:52:23.845Z,25.00
2018-08-03T07:54:53.262Z,25.00
2018-08-03T07:57:22.559Z,25.40
2018-08-03T07:59:52.021Z,25.50
2018-08-03T08:02:21.549Z,25.70
2018-08-03T08:04:50.669Z,25.80
2018-08-03T08:07:19.923Z,26.00
2018-08-03T08:09:49.113Z,26.00
2018-08-03T08:12:18.523Z,26.00
2018-08-03T08:14:47.822Z,26.00
2018-08-03T08:17:17.240Z,25.80
2018-08-03T08:19:46.496Z,26.00
2018-08-03T08:22:15.749Z,26.50
2018-08-03T08:24:45.171Z,26.50
2018-08-03T08:27:14.566Z,26.30
2018-08-03T08:29:43.995Z,26.20
2018-08-03T08:32:13.308Z,26.30
2018-08-03T08:34:42.486Z,26.60
2018-08-03T08:37:11.753Z,26.60
2018-08-03T08:39:41.093Z,26.70
2018-08-03T08:42:10.585Z,26.90
2018-08-03T08:44:40.248Z,26.90
2018-08-03T08:47:10.519Z,26.90
2018-08-03T08:49:39.975Z,26.90
2018-08-03T08:52:09.003Z,27.20
2018-08-03T08:54:38.522Z,27.60
2018-08-03T08:57:07.650Z,27.60
2018-08-03T08:59:37.151Z,27.70
2018-08-03T09:02:06.457Z,27.50
2018-08-03T09:04:35.516Z,27.60
2018-08-03T09:07:04.758Z,27.70
2018-08-03T09:09:34.674Z,27.90
2018-08-03T09:12:03.929Z,27.90
2018-08-03T09:14:33.356Z,27.60
2018-08-03T09:17:03.400Z,27.30
2018-08-03T09:19:32.659Z,27.50
2018-08-03T09:22:03.018Z,28.00
2018-08-03T09:24:32.216Z,28.10
2018-08-03T09:27:01.518Z,27.80
2018-08-03T09:29:30.834Z,28.00
2018-08-03T09:32:00.322Z,27.90
2018-08-03T09:34:29.950Z,27.70
2018-08-03T09:36:59.547Z,27.90
2018-08-03T09:39:28.978Z,28.60
2018-08-03T09:41:58.310Z,28.90
2018-08-03T09:44:27.703Z,28.70
2018-08-03T09:46:57.379Z,29.10
2018-08-03T09:49:27.006Z,29.40
2018-08-03T09:51:56.316Z,29.20
2018-08-03T09:54:25.519Z,29.50
2018-08-03T09:56:54.878Z,29.30
2018-08-03T09:59:24.054Z,29.70
2018-08-03T10:01:54.393Z,29.40
2018-08-03T10:04:23.599Z,29.00
2018-08-03T10:06:52.893Z,29.00
2018-08-03T10:09:22.152Z,29.30
2018-08-03T10:11:51.361Z,29.80
2018-08-03T10:14:21.398Z,29.60
2018-08-03T10:16:50.923Z,28.70
2018-08-03T10:19:21.007Z,28.80
2018-08-03T10:21:50.148Z,28.20
2018-08-03T10:24:19.622Z,28.60
2018-08-03T10:26:48.957Z,29.10
2018-08-03T10:29:18.388Z,29.50
2018-08-03T10:31:48.167Z,29.20
2018-08-03T10:34:17.344Z,28.80
2018-08-03T10:36:47.052Z,29.20
2018-08-03T10:39:16.227Z,29.70
2018-08-03T10:41:45.809Z,28.60
2018-08-03T10:44:15.089Z,28.90
2018-08-03T10:46:45.376Z,29.00
2018-08-03T10:49:15.835Z,29.50
2018-08-03T10:51:45.514Z,28.80
2018-08-03T10:54:16.395Z,28.90
2018-08-03T10:56:46.132Z,29.10
2018-08-03T10:59:15.169Z,29.00
2018-08-03T11:01:45.159Z,28.70
2018-08-03T11:04:14.465Z,28.80
2018-08-03T11:06:43.808Z,28.90
2018-08-03T11:09:13.365Z,29.40
2018-08-03T11:11:42.612Z,29.40
2018-08-03T11:14:11.772Z,29.80
2018-08-03T11:16:40.960Z,29.70
2018-08-03T11:19:10.572Z,29.70
2018-08-03T11:21:39.962Z,29.50
2018-08-03T11:24:09.603Z,29.60
2018-08-03T11:26:39.103Z,29.80
2018-08-03T11:29:08.283Z,29.30
2018-08-03T11:31:37.647Z,29.60
2018-08-03T11:36:35.637Z,29.70
2018-08-03T11:39:06.958Z,29.70
2018-08-03T11:41:36.380Z,29.70
2018-08-03T11:44:06.100Z,30.20
2018-08-03T11:46:35.332Z,29.90
2018-08-03T11:49:04.811Z,30.40
2018-08-03T11:51:34.767Z,30.10
2018-08-03T11:54:03.974Z,30.40
2018-08-03T11:56:33.313Z,30.20
2018-08-03T11:59:02.684Z,29.70
2018-08-03T12:01:32.248Z,29.70
2018-08-03T12:04:01.864Z,29.70
2018-08-03T12:06:31.065Z,29.20
2018-08-03T12:09:00.250Z,30.20
2018-08-03T12:11:29.852Z,29.50
2018-08-03T12:13:59.388Z,29.30
2018-08-03T12:16:28.575Z,29.80
2018-08-03T12:18:57.798Z,30.20
2018-08-03T12:21:26.944Z,29.80
2018-08-03T12:23:56.629Z,30.00
2018-08-03T12:26:25.966Z,29.90
2018-08-03T12:28:55.202Z,29.90
2018-08-03T12:31:24.472Z,30.20
2018-08-03T12:33:53.956Z,30.10
2018-08-03T12:36:23.415Z,29.70
2018-08-03T12:38:52.850Z,30.00
2018-08-03T12:41:23.548Z,29.90
2018-08-03T12:43:52.863Z,30.20
2018-08-03T12:46:22.232Z,30.20
2018-08-03T12:48:51.488Z,30.00
2018-08-03T12:51:20.836Z,29.60
2018-08-03T12:53:50.147Z,29.40
2018-08-03T12:56:19.863Z,29.90
2018-08-03T12:58:49.229Z,29.50
2018-08-03T13:01:18.890Z,29.90
2018-08-03T13:03:48.044Z,29.70
2018-08-03T13:06:17.249Z,29.80
2018-08-03T13:08:46.461Z,29.90
2018-08-03T13:11:15.608Z,30.30
2018-08-03T13:13:44.713Z,29.70
2018-08-03T13:16:14.244Z,29.40
2018-08-03T13:18:43.453Z,29.70
2018-08-03T13:21:23.580Z,29.80
2018-08-03T13:23:57.243Z,29.60
2018-08-03T13:26:26.868Z,29.90
2018-08-03T13:28:56.512Z,29.90
2018-08-03T13:31:26.579Z,29.80
2018-08-03T13:33:56.144Z,30.00
2018-08-03T13:36:26.434Z,30.40
2018-08-03T13:38:55.838Z,30.10
2018-08-03T13:41:25.221Z,30.30
2018-08-03T13:43:54.151Z,29.80
2018-08-03T13:46:23.969Z,29.90
2018-08-03T13:48:53.128Z,29.90
2018-08-03T13:51:22.817Z,30.30
2018-08-03T13:53:51.973Z,30.70
2018-08-03T13:56:21.231Z,29.80
2018-08-03T13:58:50.312Z,29.80
2018-08-03T14:01:31.111Z,29.50
2018-08-03T14:04:00.482Z,29.90
2018-08-03T14:06:29.804Z,30.20
2018-08-03T14:08:59.163Z,29.80
2018-08-03T14:11:28.264Z,30.20
2018-08-03T14:13:57.525Z,30.10
2018-08-03T14:16:27.772Z,30.40
2018-08-03T14:18:56.985Z,29.90
2018-08-03T14:21:26.844Z,29.60
2018-08-03T14:26:25.065Z,29.50
2018-08-03T14:28:55.645Z,29.60
2018-08-03T14:31:25.141Z,29.90
2018-08-03T14:33:54.634Z,29.40
2018-08-03T14:36:23.844Z,29.40
2018-08-03T14:38:56.570Z,29.50
2018-08-03T14:41:26.182Z,29.50
2018-08-03T14:43:55.362Z,29.40
2018-08-03T14:46:30.063Z,29.60
2018-08-03T14:49:06.606Z,29.50
2018-08-03T14:51:36.664Z,29.60
2018-08-03T14:54:06.489Z,30.20
2018-08-03T14:56:39.512Z,29.90
2018-08-03T14:59:13.023Z,30.20
2018-08-03T15:01:42.563Z,30.00
2018-08-03T15:04:12.021Z,29.40
2018-08-03T15:06:41.967Z,29.80
2018-08-03T15:09:12.746Z,29.70
2018-08-03T15:11:42.118Z,29.80
2018-08-03T15:14:11.939Z,29.80
2018-08-03T15:16:41.720Z,29.70
2018-08-03T15:19:10.997Z,29.80
2018-08-03T15:21:40.487Z,29.60
2018-08-03T15:24:10.504Z,29.60
2018-08-03T15:26:40.704Z,29.60
2018-08-03T15:29:09.796Z,29.00
2018-08-03T15:31:39.203Z,29.20
2018-08-03T15:34:08.300Z,29.50
2018-08-03T15:36:37.460Z,29.40
2018-08-03T15:39:09.767Z,29.50
2018-08-03T15:41:39.642Z,29.10
2018-08-03T15:44:09.023Z,29.10
2018-08-03T15:46:38.101Z,28.80
2018-08-03T15:49:08.372Z,28.70
2018-08-03T15:51:37.539Z,28.60
2018-08-03T15:54:07.963Z,28.40
2018-08-03T15:56:37.537Z,28.60
2018-08-03T15:59:06.797Z,28.60
2018-08-03T16:01:35.939Z,28.60
2018-08-03T16:04:05.827Z,28.50
2018-08-03T16:06:34.996Z,28.00
2018-08-03T16:09:06.460Z,27.90
2018-08-03T16:11:35.812Z,28.00
2018-08-03T16:14:05.332Z,27.80
2018-08-03T16:16:35.506Z,27.40
2018-08-03T16:19:04.746Z,27.30
2018-08-03T16:21:34.250Z,27.00
2018-08-03T16:24:03.913Z,26.90
2018-08-03T16:26:33.943Z,26.80
2018-08-03T16:29:03.360Z,26.50
2018-08-03T16:31:32.626Z,26.40
2018-08-03T16:34:02.727Z,26.40
2018-08-03T16:36:32.063Z,26.10
2018-08-03T16:39:01.406Z,26.10
2018-08-03T16:41:31.874Z,26.00
2018-08-03T16:44:01.517Z,26.00
2018-08-03T16:46:31.024Z,25.80
2018-08-03T16:49:00.525Z,25.30
2018-08-03T16:51:29.862Z,25.10
2018-08-03T16:53:59.394Z,25.00
2018-08-03T16:56:28.813Z,24.80
2018-08-03T16:58:58.244Z,24.50
2018-08-03T17:01:27.541Z,24.50
2018-08-03T17:03:56.646Z,24.30
2018-08-03T17:06:25.934Z,24.30
2018-08-03T17:08:55.032Z,24.70
2018-08-03T17:11:24.259Z,24.80
2018-08-03T17:13:53.445Z,24.60
2018-08-03T17:16:22.637Z,24.20
2018-08-03T17:18:52.045Z,23.70
2018-08-03T17:21:21.269Z,23.30
2018-08-03T17:23:50.393Z,23.10
2018-08-03T17:26:19.718Z,22.90
2018-08-03T17:28:48.824Z,22.40
2018-08-03T17:31:18.027Z,22.30
2018-08-03T17:33:47.191Z,22.10
2018-08-03T17:36:16.531Z,21.90
2018-08-03T17:38:45.776Z,21.80
2018-08-03T17:41:14.901Z,21.80
2018-08-03T17:43:44.164Z,21.50
2018-08-03T17:46:13.312Z,21.60
2018-08-03T17:48:42.516Z,21.50
2018-08-03T17:51:11.701Z,21.60
2018-08-03T17:53:41.247Z,21.50
2018-08-03T17:56:10.518Z,21.40
2018-08-03T17:58:40.055Z,21.30
2018-08-03T18:01:09.145Z,21.20
2018-08-03T18:03:38.339Z,21.10
2018-08-03T18:08:36.558Z,20.70
2018-08-03T18:11:05.771Z,20.60
2018-08-03T18:13:35.216Z,20.50
2018-08-03T18:16:04.896Z,20.40
2018-08-03T18:18:34.178Z,20.40
2018-08-03T18:21:03.417Z,20.20
2018-08-03T18:23:32.812Z,20.10
2018-08-03T18:26:02.067Z,19.90
2018-08-03T18:28:31.394Z,19.90
2018-08-03T18:31:01.025Z,19.80
2018-08-03T18:33:30.427Z,19.80
2018-08-03T18:35:59.800Z,19.80
2018-08-03T18:38:29.289Z,19.60
2018-08-03T18:40:59.090Z,19.50
2018-08-03T18:43:28.872Z,19.30
2018-08-03T18:45:58.707Z,19.30
2018-08-03T18:48:28.013Z,18.90
2018-08-03T18:50:57.677Z,18.70
2018-08-03T18:53:27.406Z,18.90
2018-08-03T18:55:56.864Z,18.90
2018-08-03T18:58:26.434Z,18.90
2018-08-03T19:00:55.987Z,18.70
2018-08-03T19:03:25.656Z,18.60
2018-08-03T19:05:55.024Z,18.60
2018-08-03T19:08:24.567Z,18.30
2018-08-03T19:10:54.197Z,18.20
2018-08-03T19:13:23.710Z,18.00
2018-08-03T19:15:53.063Z,18.00
2018-08-03T19:18:22.964Z,18.00
2018-08-03T19:20:52.680Z,18.00
2018-08-03T19:23:21.871Z,18.00
2018-08-03T19:25:51.832Z,18.00
2018-08-03T19:28:21.572Z,18.00
2018-08-03T19:30:50.795Z,17.80
2018-08-03T19:33:20.123Z,17.70
2018-08-03T19:35:49.597Z,17.60
2018-08-03T19:38:19.174Z,17.60
2018-08-03T19:40:48.649Z,17.50
2018-08-03T19:43:18.184Z,17.50
2018-08-03T19:45:47.571Z,17.40
2018-08-03T19:48:16.788Z,17.30
2018-08-03T19:50:45.985Z,17.30
2018-08-03T19:53:15.156Z,17.20
2018-08-03T19:55:44.657Z,17.00
2018-08-03T19:58:13.948Z,16.90
2018-08-03T20:00:43.078Z,16.90
2018-08-03T20:03:12.947Z,16.70
2018-08-03T20:05:42.793Z,16.80
2018-08-03T20:08:12.067Z,16.70
2018-08-03T20:10:41.517Z,16.70
2018-08-03T20:13:11.208Z,16.70
2018-08-03T20:15:40.327Z,16.50
2018-08-03T20:18:09.639Z,16.40
2018-08-03T20:20:38.835Z,16.40
2018-08-03T20:23:08.181Z,16.30
2018-08-03T20:25:37.632Z,16.30
2018-08-03T20:28:06.546Z,16.30
2018-08-03T20:30:35.847Z,16.40
2018-08-03T20:33:05.013Z,16.20
2018-08-03T20:35:34.209Z,16.00
2018-08-03T20:38:03.427Z,16.10
2018-08-03T20:40:33.368Z,16.00
2018-08-03T20:43:02.697Z,16.10
2018-08-03T20:45:31.951Z,16.10
2018-08-03T20:48:01.445Z,15.80
2018-08-03T20:50:30.466Z,15.50
2018-08-03T20:52:59.720Z,15.40
2018-08-03T20:55:28.956Z,15.60
2018-08-03T20:57:58.110Z,15.70
2018-08-03T21:00:27.129Z,15.70
2018-08-03T21:02:56.546Z,15.60
2018-08-03T21:05:26.792Z,15.60
2018-08-03T21:07:56.063Z,15.60
2018-08-03T21:10:25.466Z,15.50
2018-08-03T21:12:54.696Z,15.50
2018-08-03T21:15:24.098Z,15.60
2018-08-03T21:17:53.293Z,15.60
2018-08-03T21:20:22.529Z,15.60
2018-08-03T21:22:51.923Z,15.60
2018-08-03T21:25:21.035Z,15.50
2018-08-03T21:27:50.287Z,15.40
2018-08-03T21:30:19.566Z,15.30
2018-08-03T21:32:48.987Z,15.20
2018-08-03T21:35:18.117Z,15.00
2018-08-03T21:37:47.473Z,15.20
2018-08-03T21:40:16.769Z,15.20
2018-08-03T21:42:45.943Z,15.30
2018-08-03T21:45:15.228Z,15.30
2018-08-03T21:47:44.572Z,15.20
2018-08-03T21:50:13.797Z,15.20
2018-08-03T21:52:43.062Z,15.10
2018-08-03T21:55:12.240Z,15.10
2018-08-03T21:57:41.328Z,15.00
2018-08-03T22:00:13.962Z,14.70
2018-08-03T22:02:42.992Z,14.70
2018-08-03T22:05:12.126Z,14.70
2018-08-03T22:07:41.315Z,14.80
2018-08-03T22:10:10.618Z,14.80
2018-08-03T22:12:39.773Z,14.70
2018-08-03T22:15:08.911Z,14.60
2018-08-03T22:17:38.410Z,14.80
2018-08-03T22:20:07.629Z,14.70
2018-08-03T22:22:36.939Z,14.60
2018-08-03T22:25:06.421Z,14.70
2018-08-03T22:27:35.581Z,14.60
2018-08-03T22:30:05.329Z,14.50
2018-08-03T22:32:34.534Z,14.50
2018-08-03T22:37:32.546Z,14.60
2018-08-03T22:40:01.643Z,14.60
2018-08-03T22:42:30.895Z,14.70
2018-08-03T22:45:00.076Z,14.70
2018-08-03T22:47:29.289Z,14.60
2018-08-03T22:49:58.444Z,14.50
2018-08-03T22:52:27.715Z,14.50
2018-08-03T22:54:56.832Z,14.50
2018-08-03T22:57:26.097Z,14.60
2018-08-03T22:59:55.287Z,14.40
2018-08-03T23:02:24.935Z,14.50
2018-08-03T23:04:54.183Z,14.40
2018-08-03T23:07:23.421Z,14.30
2018-08-03T23:09:52.633Z,14.30
2018-08-03T23:12:21.881Z,14.30
2018-08-03T23:14:51.211Z,14.40
2018-08-03T23:19:49.155Z,14.30
2018-08-03T23:22:18.559Z,14.40
2018-08-03T23:24:47.756Z,14.40
2018-08-03T23:27:17.524Z,14.30
2018-08-03T23:29:46.651Z,14.20
2018-08-03T23:32:15.860Z,14.20
2018-08-03T23:34:45.018Z,14.20
2018-08-03T23:37:14.290Z,14.10
2018-08-03T23:42:12.105Z,14.00
2018-08-03T23:44:41.427Z,13.90
2018-08-03T23:47:10.628Z,13.90
2018-08-03T23:49:40.127Z,13.80
2018-08-03T23:52:09.315Z,13.80
2018-08-03T23:54:38.535Z,13.80
2018-08-03T23:57:07.764Z,13.90
2018-08-03T23:59:36.875Z,13.80
